Terminal Aerodrome Forecast
Issued by NWS Detroit/Pontiac, MI

Home | Current Version | Previous Version | Text Only | Print | Product List | Glossary On
Versions: 1 2 3 4 5 6 7 8 9 10 11 12 13 14 15 16 17 18 19 20 21 22 23 24
000
FTUS43 KDTX 012104 AAA
TAFDTW
TAF AMD
KDTW 012104Z 0121/0224 14006KT P6SM SCT250
     FM020400 19010KT P6SM SCT250 WS010/23040KT
     FM021400 22012G22KT P6SM OVC045
     FM022000 22012KT 6SM -SHRA OVC030=

USA.gov is the U.S. government's official web portal to all federal, state and local government web resources and services.